Time;durP1;ratioP1;P1;durP2;ratioP2;P2;SDS_P1;SDS_P2;PMS_P1;PMS_P2;Temp;Humidity;BMP_temperature;BMP_pressure;BME280_temperature;BME280_humidity;BME280_pressure;Samples;Min_cycle;Max_cycle;Signal;HPM_P1;HPM_P2
2021/07/04 00:00:22;;;;;;;;;;;;;;;;;;5006645;28;20378;-80
2021/07/04 00:02:48;;;;;;;;;;;;;;;;;;5002492;28;19917;-80
2021/07/04 00:05:14;;;;;;;;;;;;;;;;;;5031694;28;19967;-80
2021/07/04 00:07:42;;;;;;;;;;;;;;;;;;5018310;28;19963;-80
2021/07/04 00:10:08;;;;;;;;;;;;;;;;;;5022188;28;19924;-79
2021/07/04 00:12:33;;;;;;;;;;;;;;;;;;5023250;28;19921;-80
2021/07/04 00:14:59;;;;;;;;;;;;;;;;;;5018431;28;20026;-80
2021/07/04 00:17:24;;;;;;;;;;;;;;;;;;5018937;28;20388;-80
2021/07/04 00:19:49;;;;;;;;;;;;;;;;;;5028933;28;19917;-79
2021/07/04 00:22:14;;;;;;;;;;;;;;;;;;5018446;28;20284;-80
2021/07/04 00:24:39;;;;;;;;;;;;;;;;;;5017474;28;19964;-80
2021/07/04 00:27:05;;;;;;;;;;;;;;;;;;5015238;28;19966;-80
2021/07/04 00:29:30;;;;;;;;;;;;;;;;;;4999514;28;20024;-79
2021/07/04 00:31:55;;;;;;;;;;;;;;;;;;5015354;28;19917;-79
2021/07/04 00:34:20;;;;;;;;;;;;;;;;;;4998910;28;19917;-80
2021/07/04 00:36:45;;;;;;;;;;;;;;;;;;5015102;28;19917;-80
2021/07/04 00:39:11;;;;;;;;;;;;;;;;;;5003140;28;19913;-80
2021/07/04 00:41:36;;;;;;;;;;;;;;;;;;5020763;28;19925;-80
2021/07/04 00:44:01;;;;;;;;;;;;;;;;;;5003338;28;19913;-80
2021/07/04 00:46:30;;;;;;;;;;;;;;;;;;5003136;28;19923;-80
2021/07/04 00:48:55;;;;;;;;;;;;;;;;;;5018166;28;19944;-80
2021/07/04 00:51:21;;;;;;;;;;;;;;;;;;5018961;28;19960;-79
2021/07/04 00:53:46;;;;;;;;;;;;;;;;;;5019167;28;19961;-79
2021/07/04 00:56:11;;;;;;;;;;;;;;;;;;5002891;28;20269;-80
2021/07/04 00:58:36;;;;;;;;;;;;;;;;;;5018735;28;19918;-79
2021/07/04 01:01:01;;;;;;;;;;;;;;;;;;5019665;28;19924;-81
2021/07/04 01:03:27;;;;;;;;;;;;;;;;;;5002925;28;19913;-80
2021/07/04 01:05:52;;;;;;;;;;;;;;;;;;5019277;28;20020;-80
2021/07/04 01:08:17;;;;;;;;;;;;;;;;;;5018801;28;19917;-80
2021/07/04 01:10:51;;;;;;;;;;;;;;;;;;5018798;28;19913;-80
2021/07/04 01:13:16;;;;;;;;;;;;;;;;;;5018149;28;19977;-80
2021/07/04 01:15:43;;;;;;;;;;;;;;;;;;5002343;28;20015;-80
2021/07/04 01:18:08;;;;;;;;;;;;;;;;;;5018826;28;20002;-80
2021/07/04 01:20:33;;;;;;;;;;;;;;;;;;5002919;28;19921;-79
2021/07/04 01:22:59;;;;;;;;;;;;;;;;;;5018234;28;19921;-80
2021/07/04 01:25:24;;;;;;;;;;;;;;;;;;5018757;28;20363;-80
2021/07/04 01:27:50;;;;;;;;;;;;;;;;;;5002008;28;19918;-80
2021/07/04 01:30:15;;;;;;;;;;;;;;;;;;5018473;28;19921;-80
2021/07/04 01:32:40;;;;;;;;;;;;;;;;;;5018839;28;20437;-80
2021/07/04 01:35:06;;;;;;;;;;;;;;;;;;5018661;28;19920;-79
2021/07/04 01:37:31;;;;;;;;;;;;;;;;;;5018246;28;19917;-80
2021/07/04 01:39:56;;;;;;;;;;;;;;;;;;5002011;28;19917;-80
2021/07/04 01:42:21;;;;;;;;;;;;;;;;;;5018160;28;19921;-81
2021/07/04 01:44:47;;;;;;;;;;;;;;;;;;5001784;28;19939;-79
2021/07/04 01:47:12;;;;;;;;;;;;;;;;;;5018001;28;20384;-81
2021/07/04 01:49:37;;;;;;;;;;;;;;;;;;5001474;28;19963;-79
2021/07/04 01:52:03;;;;;;;;;;;;;;;;;;5002082;28;19914;-79
2021/07/04 01:54:28;;;;;;;;;;;;;;;;;;5002168;28;19920;-80
2021/07/04 01:56:53;;;;;;;;;;;;;;;;;;5017835;28;20304;-80
2021/07/04 01:59:18;;;;;;;;;;;;;;;;;;4998277;28;19918;-80
2021/07/04 02:01:44;;;;;;;;;;;;;;;;;;5014656;28;19928;-80
2021/07/04 02:04:09;;;;;;;;;;;;;;;;;;4998108;28;19925;-81
2021/07/04 02:06:34;;;;;;;;;;;;;;;;;;4999830;28;19983;-80
2021/07/04 02:08:59;;;;;;;;;;;;;;;;;;5000857;28;20392;-79
2021/07/04 02:11:24;;;;;;;;;;;;;;;;;;5017762;28;19913;-80
2021/07/04 02:13:50;;;;;;;;;;;;;;;;;;5017530;28;20012;-80
2021/07/04 02:16:15;;;;;;;;;;;;;;;;;;5001884;28;19917;-80
2021/07/04 02:18:41;;;;;;;;;;;;;;;;;;5001099;28;19921;-80
2021/07/04 02:21:06;;;;;;;;;;;;;;;;;;5001359;28;19913;-80
2021/07/04 02:23:32;;;;;;;;;;;;;;;;;;5037299;28;19916;-80
2021/07/04 02:25:57;;;;;;;;;;;;;;;;;;5040420;28;19919;-81
2021/07/04 02:28:23;;;;;;;;;;;;;;;;;;5040503;28;19913;-80
2021/07/04 02:30:48;;;;;;;;;;;;;;;;;;5040339;28;19912;-79
2021/07/04 02:33:14;;;;;;;;;;;;;;;;;;5022036;28;19917;-80
2021/07/04 02:35:41;;;;;;;;;;;;;;;;;;5020460;28;19913;-79
2021/07/04 02:38:06;;;;;;;;;;;;;;;;;;5028998;28;19924;-79
2021/07/04 02:40:31;;;;;;;;;;;;;;;;;;5007777;28;20366;-79
2021/07/04 02:42:56;;;;;;;;;;;;;;;;;;5007592;28;19987;-80
2021/07/04 02:45:22;;;;;;;;;;;;;;;;;;5020915;28;19914;-79
2021/07/04 02:47:47;;;;;;;;;;;;;;;;;;5010611;28;20000;-79
2021/07/04 02:50:12;;;;;;;;;;;;;;;;;;5020694;28;19977;-79
2021/07/04 02:52:37;;;;;;;;;;;;;;;;;;5004256;28;20352;-79
2021/07/04 02:55:06;;;;;;;;;;;;;;;;;;5028886;28;19916;-80
2021/07/04 02:57:31;;;;;;;;;;;;;;;;;;5032402;28;19944;-79
2021/07/04 02:59:57;;;;;;;;;;;;;;;;;;5039084;28;20356;-80
2021/07/04 03:02:22;;;;;;;;;;;;;;;;;;5032523;28;19967;-80
2021/07/04 03:04:48;;;;;;;;;;;;;;;;;;5043260;28;19921;-80
2021/07/04 03:07:13;;;;;;;;;;;;;;;;;;5030587;28;19917;-80
2021/07/04 03:09:40;;;;;;;;;;;;;;;;;;5005137;28;19952;-79
2021/07/04 03:12:05;;;;;;;;;;;;;;;;;;5019917;28;19913;-79
2021/07/04 03:14:30;;;;;;;;;;;;;;;;;;5019908;28;19920;-80
2021/07/04 03:16:56;;;;;;;;;;;;;;;;;;5009076;28;19917;-80
2021/07/04 03:19:21;;;;;;;;;;;;;;;;;;5019296;28;19918;-79
2021/07/04 03:21:46;;;;;;;;;;;;;;;;;;5002888;28;20311;-79
2021/07/04 03:24:11;;;;;;;;;;;;;;;;;;5020749;28;19921;-80
2021/07/04 03:26:36;;;;;;;;;;;;;;;;;;5034743;28;20391;-80
2021/07/04 03:29:02;;;;;;;;;;;;;;;;;;5003344;28;19913;-79
2021/07/04 03:31:27;;;;;;;;;;;;;;;;;;5019698;28;19920;-79
2021/07/04 03:33:52;;;;;;;;;;;;;;;;;;5002705;28;19960;-79
2021/07/04 03:36:17;;;;;;;;;;;;;;;;;;5002097;28;19923;-79
2021/07/04 03:38:42;;;;;;;;;;;;;;;;;;5035500;28;19913;-80
2021/07/04 03:41:08;;;;;;;;;;;;;;;;;;5021892;28;19917;-79
2021/07/04 03:43:33;;;;;;;;;;;;;;;;;;5019161;28;19917;-79
2021/07/04 03:45:58;;;;;;;;;;;;;;;;;;5023362;28;19924;-79
2021/07/04 03:48:23;;;;;;;;;;;;;;;;;;5004636;28;19980;-80
2021/07/04 03:50:48;;;;;;;;;;;;;;;;;;5019051;28;19920;-79
2021/07/04 03:53:14;;;;;;;;;;;;;;;;;;5002545;28;19920;-79
2021/07/04 03:55:39;;;;;;;;;;;;;;;;;;5034404;28;20341;-79
2021/07/04 03:58:04;;;;;;;;;;;;;;;;;;5004319;28;19924;-79
2021/07/04 04:00:29;;;;;;;;;;;;;;;;;;5020478;28;19919;-80
2021/07/04 04:02:55;;;;;;;;;;;;;;;;;;5002572;28;20008;-80
2021/07/04 04:05:20;;;;;;;;;;;;;;;;;;5002628;28;19959;-79
2021/07/04 04:07:45;;;;;;;;;;;;;;;;;;5030453;28;19929;-79
2021/07/04 04:10:11;;;;;;;;;;;;;;;;;;5016861;28;20012;-80
2021/07/04 04:12:36;;;;;;;;;;;;;;;;;;5006179;28;19925;-79
2021/07/04 04:15:01;;;;;;;;;;;;;;;;;;5020885;28;19917;-79
2021/07/04 04:17:27;;;;;;;;;;;;;;;;;;5018937;28;19913;-79
2021/07/04 04:19:52;;;;;;;;;;;;;;;;;;5018518;28;19917;-79
2021/07/04 04:22:17;;;;;;;;;;;;;;;;;;5024982;28;19922;-79
2021/07/04 04:24:42;;;;;;;;;;;;;;;;;;5020184;28;19956;-81
2021/07/04 04:27:08;;;;;;;;;;;;;;;;;;5018254;28;19960;-79
2021/07/04 04:29:33;;;;;;;;;;;;;;;;;;5035727;28;19913;-79
2021/07/04 04:31:58;;;;;;;;;;;;;;;;;;5035225;28;19971;-80
2021/07/04 04:34:24;;;;;;;;;;;;;;;;;;5017151;28;19929;-80
2021/07/04 04:36:49;;;;;;;;;;;;;;;;;;5019468;28;19917;-80
2021/07/04 04:39:14;;;;;;;;;;;;;;;;;;5036219;28;19920;-80
2021/07/04 04:41:39;;;;;;;;;;;;;;;;;;5002226;28;19968;-80
2021/07/04 04:44:05;;;;;;;;;;;;;;;;;;5018496;28;19913;-80
2021/07/04 04:46:30;;;;;;;;;;;;;;;;;;5018611;28;19959;-80
2021/07/04 04:48:55;;;;;;;;;;;;;;;;;;5014297;28;19917;-79
2021/07/04 04:51:21;;;;;;;;;;;;;;;;;;5002232;28;19975;-80
2021/07/04 04:53:46;;;;;;;;;;;;;;;;;;5002068;28;19913;-83
2021/07/04 04:56:11;;;;;;;;;;;;;;;;;;5027815;28;19927;-87
2021/07/04 04:58:36;;;;;;;;;;;;;;;;;;4997435;28;20327;-86
2021/07/04 05:01:02;;;;;;;;;;;;;;;;;;5013082;28;19921;-88
2021/07/04 05:03:27;;;;;;;;;;;;;;;;;;4997676;28;19925;-84
2021/07/04 05:05:52;;;;;;;;;;;;;;;;;;5009189;28;19921;-83
2021/07/04 05:08:18;;;;;;;;;;;;;;;;;;4997759;28;19913;-83
2021/07/04 05:10:43;;;;;;;;;;;;;;;;;;5004694;28;19928;-84
2021/07/04 05:13:08;;;;;;;;;;;;;;;;;;5031649;28;20052;-84
2021/07/04 05:15:33;;;;;;;;;;;;;;;;;;4997675;28;19925;-80
2021/07/04 05:18:01;;;;;;;;;;;;;;;;;;5014409;28;19917;-84
2021/07/04 05:20:26;;;;;;;;;;;;;;;;;;5013920;28;20000;-90
2021/07/04 05:22:51;;;;;;;;;;;;;;;;;;5013585;28;20017;-89
2021/07/04 05:25:16;;;;;;;;;;;;;;;;;;5001067;28;19956;-89
2021/07/04 05:27:42;;;;;;;;;;;;;;;;;;5016940;28;19920;-89
2021/07/04 05:30:07;;;;;;;;;;;;;;;;;;5033347;28;19921;-90
2021/07/04 05:32:33;;;;;;;;;;;;;;;;;;5001544;28;20353;-84
2021/07/04 05:34:58;;;;;;;;;;;;;;;;;;4997558;28;19913;-84
2021/07/04 05:37:23;;;;;;;;;;;;;;;;;;5042336;28;19928;-83
2021/07/04 05:39:48;;;;;;;;;;;;;;;;;;5033747;28;20164;-84
2021/07/04 05:42:13;;;;;;;;;;;;;;;;;;4999966;28;20375;-83
2021/07/04 05:44:39;;;;;;;;;;;;;;;;;;4997005;28;19913;-83
2021/07/04 05:47:04;;;;;;;;;;;;;;;;;;5000473;28;19968;-82
2021/07/04 05:49:29;;;;;;;;;;;;;;;;;;5016774;28;19924;-84
2021/07/04 05:51:54;;;;;;;;;;;;;;;;;;5022630;28;20340;-82
2021/07/04 05:54:20;;;;;;;;;;;;;;;;;;5027783;28;19928;-83
2021/07/04 05:56:45;;;;;;;;;;;;;;;;;;5000551;28;19921;-82
2021/07/04 05:59:10;;;;;;;;;;;;;;;;;;5002003;28;19917;-80
2021/07/04 06:01:35;;;;;;;;;;;;;;;;;;5007441;28;20272;-80
2021/07/04 06:04:01;;;;;;;;;;;;;;;;;;5015861;28;19921;-81
2021/07/04 06:06:26;;;;;;;;;;;;;;;;;;5019001;28;20374;-81
2021/07/04 06:08:51;;;;;;;;;;;;;;;;;;5016190;28;20203;-82
2021/07/04 06:11:16;;;;;;;;;;;;;;;;;;5004536;28;19921;-81
2021/07/04 06:13:42;;;;;;;;;;;;;;;;;;5033190;28;19917;-81
2021/07/04 06:16:07;;;;;;;;;;;;;;;;;;5032420;28;19913;-82
2021/07/04 06:18:32;;;;;;;;;;;;;;;;;;5016096;28;20047;-82
2021/07/04 06:20:57;;;;;;;;;;;;;;;;;;5001350;28;19925;-82
2021/07/04 06:23:22;;;;;;;;;;;;;;;;;;5009913;28;19924;-81
2021/07/04 06:25:48;;;;;;;;;;;;;;;;;;4999377;28;20365;-81
2021/07/04 06:28:13;;;;;;;;;;;;;;;;;;4999775;28;19924;-82
2021/07/04 06:30:38;;;;;;;;;;;;;;;;;;5003002;28;19921;-78
2021/07/04 06:33:03;;;;;;;;;;;;;;;;;;5037957;28;20443;-79
2021/07/04 06:35:29;;;;;;;;;;;;;;;;;;5018962;28;19917;-80
2021/07/04 06:37:54;;;;;;;;;;;;;;;;;;5020058;28;19956;-79
2021/07/04 06:40:19;;;;;;;;;;;;;;;;;;5004586;28;19919;-80
2021/07/04 06:42:44;;;;;;;;;;;;;;;;;;5008345;28;19925;-80
2021/07/04 06:45:11;;;;;;;;;;;;;;;;;;5035516;28;19913;-83
2021/07/04 06:47:37;;;;;;;;;;;;;;;;;;5029132;28;19967;-78
2021/07/04 06:50:03;;;;;;;;;;;;;;;;;;5019894;28;19913;-79
2021/07/04 06:52:28;;;;;;;;;;;;;;;;;;5033587;28;20383;-78
2021/07/04 06:54:53;;;;;;;;;;;;;;;;;;5035980;28;19983;-78
2021/07/04 06:57:28;;;;;;;;;;;;;;;;;;5035113;28;19913;-79
2021/07/04 06:59:57;;;;;;;;;;;;;;;;;;5037449;28;19912;-80
2021/07/04 07:02:22;;;;;;;;;;;;;;;;;;5014090;28;19921;-79
2021/07/04 07:04:48;;;;;;;;;;;;;;;;;;5019686;28;19917;-78
2021/07/04 07:07:13;;;;;;;;;;;;;;;;;;5018603;28;19927;-80
2021/07/04 07:09:38;;;;;;;;;;;;;;;;;;5038158;28;19932;-78
2021/07/04 07:12:03;;;;;;;;;;;;;;;;;;5030868;28;19932;-78
2021/07/04 07:14:28;;;;;;;;;;;;;;;;;;5033861;28;20388;-79
2021/07/04 07:16:54;;;;;;;;;;;;;;;;;;5033476;28;20371;-79
2021/07/04 07:19:19;;;;;;;;;;;;;;;;;;5033383;28;19971;-81
2021/07/04 07:21:44;;;;;;;;;;;;;;;;;;5023273;28;19940;-81
2021/07/04 07:24:09;;;;;;;;;;;;;;;;;;5011493;28;20288;-82
2021/07/04 07:26:34;;;;;;;;;;;;;;;;;;5032725;28;19917;-81
2021/07/04 07:29:00;;;;;;;;;;;;;;;;;;5017321;28;20295;-83
2021/07/04 07:31:25;;;;;;;;;;;;;;;;;;5008456;28;20343;-79
2021/07/04 07:33:50;;;;;;;;;;;;;;;;;;5020002;28;19920;-78
2021/07/04 07:36:15;;;;;;;;;;;;;;;;;;5020175;28;19956;-77
2021/07/04 07:38:41;;;;;;;;;;;;;;;;;;5033949;28;20375;-79
2021/07/04 07:41:06;;;;;;;;;;;;;;;;;;5020919;28;19938;-79
2021/07/04 07:43:31;;;;;;;;;;;;;;;;;;5028236;28;19923;-79
2021/07/04 07:45:56;;;;;;;;;;;;;;;;;;5034476;28;19939;-78
2021/07/04 07:48:22;;;;;;;;;;;;;;;;;;5033229;28;19913;-78
2021/07/04 07:50:47;;;;;;;;;;;;;;;;;;5017271;28;20056;-79
2021/07/04 07:53:12;;;;;;;;;;;;;;;;;;5020271;28;19923;-78
2021/07/04 07:55:37;;;;;;;;;;;;;;;;;;5034405;28;20412;-78
2021/07/04 07:58:04;;;;;;;;;;;;;;;;;;5031894;28;19961;-78
2021/07/04 08:00:29;;;;;;;;;;;;;;;;;;5041495;28;19935;-79
2021/07/04 08:02:54;;;;;;;;;;;;;;;;;;5025020;28;20380;-78
2021/07/04 08:05:19;;;;;;;;;;;;;;;;;;5024904;28;19913;-77
2021/07/04 08:07:44;;;;;;;;;;;;;;;;;;5019839;28;19963;-78
2021/07/04 08:10:11;;;;;;;;;;;;;;;;;;5021143;28;19963;-78
2021/07/04 08:12:36;;;;;;;;;;;;;;;;;;5003579;28;19915;-78
2021/07/04 08:15:02;;;;;;;;;;;;;;;;;;5039064;28;19939;-78
2021/07/04 08:17:27;;;;;;;;;;;;;;;;;;5035765;28;19960;-78
2021/07/04 08:19:53;;;;;;;;;;;;;;;;;;5023980;28;19920;-78
2021/07/04 08:22:18;;;;;;;;;;;;;;;;;;5058864;28;20406;-78
2021/07/04 08:24:43;;;;;;;;;;;;;;;;;;5047725;28;19925;-77
2021/07/04 08:27:08;;;;;;;;;;;;;;;;;;5017578;28;19983;-79
2021/07/04 08:29:33;;;;;;;;;;;;;;;;;;5004224;28;19921;-79
2021/07/04 08:32:00;;;;;;;;;;;;;;;;;;5003468;28;19913;-78
2021/07/04 08:34:25;;;;;;;;;;;;;;;;;;5018655;28;19944;-78
2021/07/04 08:36:50;;;;;;;;;;;;;;;;;;5000255;28;19917;-80
2021/07/04 08:39:15;;;;;;;;;;;;;;;;;;5016809;28;20028;-79
2021/07/04 08:41:40;;;;;;;;;;;;;;;;;;5000821;28;19960;-79
2021/07/04 08:44:06;;;;;;;;;;;;;;;;;;5000245;28;20393;-79
2021/07/04 08:46:31;;;;;;;;;;;;;;;;;;5016710;28;19986;-80
2021/07/04 08:48:57;;;;;;;;;;;;;;;;;;5016585;28;19913;-80
2021/07/04 08:51:22;;;;;;;;;;;;;;;;;;5016901;28;19919;-79
2021/07/04 08:53:47;;;;;;;;;;;;;;;;;;5013069;28;19935;-81
2021/07/04 08:56:12;;;;;;;;;;;;;;;;;;5019851;28;20490;-81
2021/07/04 08:58:37;;;;;;;;;;;;;;;;;;5037382;28;19959;-79
2021/07/04 09:01:16;;;;;;;;;;;;;;;;;;5023932;28;19912;-80
2021/07/04 09:03:48;;;;;;;;;;;;;;;;;;5040759;28;20353;-81
2021/07/04 09:06:13;;;;;;;;;;;;;;;;;;5040089;28;20406;-78
2021/07/04 09:08:39;;;;;;;;;;;;;;;;;;5040718;28;19944;-79
2021/07/04 09:11:22;;;;;;;;;;;;;;;;;;5023702;28;20003;-81
2021/07/04 09:13:47;;;;;;;;;;;;;;;;;;5023424;28;19944;-78
2021/07/04 09:16:14;;;;;;;;;;;;;;;;;;5040496;28;19917;-78
2021/07/04 09:18:39;;;;;;;;;;;;;;;;;;5023459;28;19920;-80
2021/07/04 09:21:17;;;;;;;;;;;;;;;;;;5039905;28;20307;-79
2021/07/04 09:23:42;;;;;;;;;;;;;;;;;;5012057;28;20000;-78
2021/07/04 09:26:07;;;;;;;;;;;;;;;;;;5035477;28;19927;-78
2021/07/04 09:28:32;;;;;;;;;;;;;;;;;;5033611;28;19924;-79
2021/07/04 09:30:58;;;;;;;;;;;;;;;;;;5015888;28;19964;-79
2021/07/04 09:33:23;;;;;;;;;;;;;;;;;;5007675;28;19986;-78
2021/07/04 09:36:08;;;;;;;;;;;;;;;;;;5030516;28;19917;-79
2021/07/04 09:38:34;;;;;;;;;;;;;;;;;;5037351;28;19913;-82
2021/07/04 09:40:59;;;;;;;;;;;;;;;;;;5037174;28;20042;-80
2021/07/04 09:43:26;;;;;;;;;;;;;;;;;;5035346;28;20303;-84
2021/07/04 09:45:52;;;;;;;;;;;;;;;;;;5007920;28;19917;-84
2021/07/04 09:48:17;;;;;;;;;;;;;;;;;;5036084;28;20368;-85
2021/07/04 09:51:01;;;;;;;;;;;;;;;;;;5037013;28;19924;-85
2021/07/04 09:53:36;;;;;;;;;;;;;;;;;;5019316;28;19913;-85
2021/07/04 09:56:15;;;;;;;;;;;;;;;;;;5021006;28;19924;-85
2021/07/04 09:58:41;;;;;;;;;;;;;;;;;;5034938;28;19917;-86
2021/07/04 10:01:06;;;;;;;;;;;;;;;;;;5030344;28;19924;-79
2021/07/04 10:03:32;;;;;;;;;;;;;;;;;;5002845;28;20355;-79
2021/07/04 10:05:57;;;;;;;;;;;;;;;;;;5002791;28;20499;-80
2021/07/04 10:08:23;;;;;;;;;;;;;;;;;;5032958;28;19921;-79
2021/07/04 10:10:49;;;;;;;;;;;;;;;;;;5018809;28;20008;-79
2021/07/04 10:13:14;;;;;;;;;;;;;;;;;;5025847;28;20441;-85
2021/07/04 10:15:41;;;;;;;;;;;;;;;;;;5034106;28;19917;-86
2021/07/04 10:18:07;;;;;;;;;;;;;;;;;;5033872;28;19913;-86
2021/07/04 10:20:32;;;;;;;;;;;;;;;;;;5033846;28;19940;-81
2021/07/04 10:22:57;;;;;;;;;;;;;;;;;;5032709;28;19972;-82
2021/07/04 10:25:22;;;;;;;;;;;;;;;;;;5028931;28;19925;-81
2021/07/04 10:27:47;;;;;;;;;;;;;;;;;;5003119;28;20072;-81
2021/07/04 10:30:13;;;;;;;;;;;;;;;;;;5016719;28;20438;-81
2021/07/04 10:32:47;;;;;;;;;;;;;;;;;;5032740;28;20333;-81
2021/07/04 10:35:12;;;;;;;;;;;;;;;;;;5017387;28;19917;-81
2021/07/04 10:37:38;;;;;;;;;;;;;;;;;;5014584;28;19921;-82
2021/07/04 10:40:13;;;;;;;;;;;;;;;;;;5014383;28;19931;-81
2021/07/04 10:42:38;;;;;;;;;;;;;;;;;;5016460;28;19969;-81
2021/07/04 10:45:04;;;;;;;;;;;;;;;;;;5000022;28;20026;-82
2021/07/04 10:47:32;;;;;;;;;;;;;;;;;;5016592;28;19929;-81
2021/07/04 10:50:11;;;;;;;;;;;;;;;;;;5006810;28;19925;-81
2021/07/04 10:52:40;;;;;;;;;;;;;;;;;;5030167;28;19939;-81
2021/07/04 10:55:07;;;;;;;;;;;;;;;;;;5033640;28;19924;-80
2021/07/04 10:57:36;;;;;;;;;;;;;;;;;;5025324;23;20356;-76
2021/07/04 11:02:45;;;;;;;;;;;;;;;;;;4995163;28;19922;-76
2021/07/04 11:05:13;;;;;;;;;;;;;;;;;;5009622;28;19926;-76
2021/07/04 11:08:09;;;;;;;;;;;;;;;;;;5008386;28;19918;-76
2021/07/04 11:10:50;;;;;;;;;;;;;;;;;;4989498;28;19922;-76
2021/07/04 11:13:15;;;;;;;;;;;;;;;;;;5006939;28;20381;-76
2021/07/04 11:15:40;;;;;;;;;;;;;;;;;;5010155;28;19925;-76
2021/07/04 11:18:11;;;;;;;;;;;;;;;;;;4994193;28;19983;-76
2021/07/04 11:20:43;;;;;;;;;;;;;;;;;;5009431;28;19964;-76
2021/07/04 11:23:09;;;;;;;;;;;;;;;;;;5010135;28;19918;-77
2021/07/04 11:25:37;;;;;;;;;;;;;;;;;;5009961;28;19921;-76
2021/07/04 11:28:15;;;;;;;;;;;;;;;;;;4994522;28;19922;-76
2021/07/04 11:30:40;;;;;;;;;;;;;;;;;;5006835;28;20009;-76
2021/07/04 11:33:31;;;;;;;;;;;;;;;;;;5007838;28;20437;-77
2021/07/04 11:36:15;;;;;;;;;;;;;;;;;;5006537;28;20091;-77
2021/07/04 11:38:41;;;;;;;;;;;;;;;;;;5006189;28;19918;-77
2021/07/04 11:41:07;;;;;;;;;;;;;;;;;;4993135;28;19924;-77
2021/07/04 11:43:32;;;;;;;;;;;;;;;;;;4993097;28;20016;-77
2021/07/04 11:46:01;;;;;;;;;;;;;;;;;;4973841;28;20008;-77
2021/07/04 11:49:08;;;;;;;;;;;;;;;;;;4992761;28;19941;-77
2021/07/04 11:51:35;;;;;;;;;;;;;;;;;;4999266;28;19914;-77
2021/07/04 11:54:11;;;;;;;;;;;;;;;;;;4979696;28;20298;-77
2021/07/04 11:56:37;;;;;;;;;;;;;;;;;;4992623;28;19922;-77
2021/07/04 11:59:09;;;;;;;;;;;;;;;;;;4993631;28;19979;-77
2021/07/04 12:01:47;;;;;;;;;;;;;;;;;;5009473;28;20367;-77
2021/07/04 12:04:13;;;;;;;;;;;;;;;;;;5008244;28;19922;-77
2021/07/04 12:06:51;;;;;;;;;;;;;;;;;;4992262;28;20373;-77
2021/07/04 12:09:16;;;;;;;;;;;;;;;;;;5009537;28;19921;-77
2021/07/04 12:11:51;;;;;;;;;;;;;;;;;;4992902;28;20306;-78
2021/07/04 12:14:23;;;;;;;;;;;;;;;;;;4993100;28;19922;-77
2021/07/04 12:16:49;;;;;;;;;;;;;;;;;;4993332;28;20309;-77
2021/07/04 12:19:24;;;;;;;;;;;;;;;;;;4992860;28;19918;-77
2021/07/04 12:21:49;;;;;;;;;;;;;;;;;;5007490;28;19929;-77
2021/07/04 12:24:14;;;;;;;;;;;;;;;;;;5005607;28;19922;-76
2021/07/04 12:26:45;;;;;;;;;;;;;;;;;;5009500;28;19914;-77
2021/07/04 12:29:10;;;;;;;;;;;;;;;;;;5005825;28;19918;-77
2021/07/04 12:31:35;;;;;;;;;;;;;;;;;;4993056;28;20005;-77
2021/07/04 12:34:00;;;;;;;;;;;;;;;;;;5008052;28;20289;-77
2021/07/04 12:36:25;;;;;;;;;;;;;;;;;;5010463;28;19918;-78
2021/07/04 12:38:52;;;;;;;;;;;;;;;;;;4994410;28;19914;-78
2021/07/04 12:41:17;;;;;;;;;;;;;;;;;;4994764;28;20388;-78
2021/07/04 12:43:43;;;;;;;;;;;;;;;;;;4996933;28;19954;-78
2021/07/04 12:46:19;;;;;;;;;;;;;;;;;;4994299;28;19926;-78
2021/07/04 12:48:45;;;;;;;;;;;;;;;;;;4997414;28;19914;-78
2021/07/04 12:51:10;;;;;;;;;;;;;;;;;;4980783;28;19925;-78
2021/07/04 12:53:42;;;;;;;;;;;;;;;;;;4997570;28;19972;-78
2021/07/04 12:56:17;;;;;;;;;;;;;;;;;;5000653;28;19972;-78
2021/07/04 12:58:50;;;;;;;;;;;;;;;;;;5018300;28;19967;-79
2021/07/04 13:01:16;;;;;;;;;;;;;;;;;;5000479;28;19925;-78
2021/07/04 13:03:46;;;;;;;;;;;;;;;;;;5000437;28;19925;-78
2021/07/04 13:06:30;;;;;;;;;;;;;;;;;;4999899;28;19917;-78
2021/07/04 13:08:56;;;;;;;;;;;;;;;;;;5013934;28;19934;-78
2021/07/04 13:11:21;;;;;;;;;;;;;;;;;;5033181;28;19937;-78
2021/07/04 13:14:00;;;;;;;;;;;;;;;;;;5000056;28;20372;-78
2021/07/04 13:16:25;;;;;;;;;;;;;;;;;;4996507;28;20012;-78
2021/07/04 13:18:51;;;;;;;;;;;;;;;;;;4996020;28;19961;-77
2021/07/04 13:21:26;;;;;;;;;;;;;;;;;;4999363;28;19957;-77
2021/07/04 13:24:11;;;;;;;;;;;;;;;;;;4999156;28;19922;-77
2021/07/04 13:26:36;;;;;;;;;;;;;;;;;;4989516;28;19957;-77
2021/07/04 13:29:12;;;;;;;;;;;;;;;;;;4998831;28;19958;-77
2021/07/04 13:31:37;;;;;;;;;;;;;;;;;;4995717;28;19918;-76
2021/07/04 13:34:18;;;;;;;;;;;;;;;;;;4998391;28;20277;-77
2021/07/04 13:36:53;;;;;;;;;;;;;;;;;;5012247;28;19918;-77
2021/07/04 13:39:18;;;;;;;;;;;;;;;;;;5014956;28;19963;-77
2021/07/04 13:41:44;;;;;;;;;;;;;;;;;;4998725;28;19922;-77
2021/07/04 13:44:09;;;;;;;;;;;;;;;;;;5014463;28;20391;-77
2021/07/04 13:46:34;;;;;;;;;;;;;;;;;;4998387;28;19926;-77
2021/07/04 13:49:00;;;;;;;;;;;;;;;;;;4999200;28;19920;-77
2021/07/04 13:51:25;;;;;;;;;;;;;;;;;;5013407;28;19917;-77
2021/07/04 13:53:50;;;;;;;;;;;;;;;;;;4995405;28;19918;-77
2021/07/04 13:56:16;;;;;;;;;;;;;;;;;;4998226;28;19925;-77
2021/07/04 13:58:41;;;;;;;;;;;;;;;;;;4998675;28;20323;-77
2021/07/04 14:01:06;;;;;;;;;;;;;;;;;;4998688;28;19917;-77
2021/07/04 14:03:31;;;;;;;;;;;;;;;;;;4998488;28;19918;-77
2021/07/04 14:05:57;;;;;;;;;;;;;;;;;;4998643;28;19968;-77
2021/07/04 14:08:22;;;;;;;;;;;;;;;;;;4998273;28;19921;-77
2021/07/04 14:10:48;;;;;;;;;;;;;;;;;;4998577;28;19920;-77
2021/07/04 14:13:13;;;;;;;;;;;;;;;;;;4998523;28;19940;-77
2021/07/04 14:15:38;;;;;;;;;;;;;;;;;;4998594;28;20365;-77
2021/07/04 14:18:05;;;;;;;;;;;;;;;;;;4998463;28;19948;-77
2021/07/04 14:20:30;;;;;;;;;;;;;;;;;;5014966;28;19917;-77
2021/07/04 14:22:55;;;;;;;;;;;;;;;;;;4998556;28;20004;-77
2021/07/04 14:25:24;;;;;;;;;;;;;;;;;;4998429;28;19972;-77
2021/07/04 14:27:49;;;;;;;;;;;;;;;;;;4998442;28;19913;-77
2021/07/04 14:30:15;;;;;;;;;;;;;;;;;;4998154;28;20078;-78
2021/07/04 14:32:40;;;;;;;;;;;;;;;;;;5011092;28;19924;-77
2021/07/04 14:35:08;;;;;;;;;;;;;;;;;;5013959;28;19917;-77
2021/07/04 14:37:34;;;;;;;;;;;;;;;;;;5013726;28;19921;-77
2021/07/04 14:39:59;;;;;;;;;;;;;;;;;;4997749;28;19925;-77
2021/07/04 14:42:27;;;;;;;;;;;;;;;;;;5007298;28;19921;-79
2021/07/04 14:44:55;;;;;;;;;;;;;;;;;;4996353;28;19932;-79
2021/07/04 14:47:21;;;;;;;;;;;;;;;;;;4997099;28;19949;-79
2021/07/04 14:49:46;;;;;;;;;;;;;;;;;;5018050;28;20312;-79
2021/07/04 14:52:14;;;;;;;;;;;;;;;;;;4986824;28;20296;-79
2021/07/04 14:54:51;;;;;;;;;;;;;;;;;;4979970;28;19913;-78
2021/07/04 14:57:16;;;;;;;;;;;;;;;;;;4995513;28;19968;-79
2021/07/04 14:59:41;;;;;;;;;;;;;;;;;;4996464;28;19917;-79
2021/07/04 15:02:06;;;;;;;;;;;;;;;;;;4996008;28;19918;-77
2021/07/04 15:04:32;;;;;;;;;;;;;;;;;;4995311;28;19924;-80
2021/07/04 15:06:57;;;;;;;;;;;;;;;;;;5011667;28;19996;-77
2021/07/04 15:09:22;;;;;;;;;;;;;;;;;;4995519;28;20007;-78
2021/07/04 15:11:49;;;;;;;;;;;;;;;;;;5011604;28;19917;-77
2021/07/04 15:14:15;;;;;;;;;;;;;;;;;;4995223;28;19929;-77
2021/07/04 15:16:40;;;;;;;;;;;;;;;;;;4996554;28;19917;-78
2021/07/04 15:19:05;;;;;;;;;;;;;;;;;;4995135;28;20004;-78
2021/07/04 15:21:30;;;;;;;;;;;;;;;;;;5001078;28;19983;-77
2021/07/04 15:23:56;;;;;;;;;;;;;;;;;;4991895;28;19925;-77
2021/07/04 15:26:21;;;;;;;;;;;;;;;;;;4994071;28;19924;-77
2021/07/04 15:28:46;;;;;;;;;;;;;;;;;;4995115;28;19914;-78
2021/07/04 15:31:11;;;;;;;;;;;;;;;;;;4994928;28;20369;-77
2021/07/04 15:33:36;;;;;;;;;;;;;;;;;;5011211;28;20504;-78
2021/07/04 15:36:02;;;;;;;;;;;;;;;;;;5011514;28;19928;-77
2021/07/04 15:38:27;;;;;;;;;;;;;;;;;;5011687;28;20387;-77
2021/07/04 15:40:52;;;;;;;;;;;;;;;;;;5008158;28;20389;-77
2021/07/04 15:43:18;;;;;;;;;;;;;;;;;;4991176;28;19944;-77
2021/07/04 15:45:44;;;;;;;;;;;;;;;;;;4994345;28;20277;-78
2021/07/04 15:48:10;;;;;;;;;;;;;;;;;;5011329;28;19964;-77
2021/07/04 15:50:35;;;;;;;;;;;;;;;;;;5011057;28;19913;-79
2021/07/04 15:53:04;;;;;;;;;;;;;;;;;;5011332;28;19914;-77
2021/07/04 15:55:29;;;;;;;;;;;;;;;;;;4991151;28;20518;-77
2021/07/04 15:57:54;;;;;;;;;;;;;;;;;;4991525;28;19927;-77
2021/07/04 16:00:20;;;;;;;;;;;;;;;;;;4993997;28;19921;-77
2021/07/04 16:02:45;;;;;;;;;;;;;;;;;;4996644;28;19976;-77
2021/07/04 16:05:10;;;;;;;;;;;;;;;;;;4995995;28;20300;-78
2021/07/04 16:07:35;;;;;;;;;;;;;;;;;;4995363;28;19924;-77
2021/07/04 16:10:02;;;;;;;;;;;;;;;;;;5012491;28;19922;-77
2021/07/04 16:12:27;;;;;;;;;;;;;;;;;;4994749;28;19917;-78
2021/07/04 16:14:52;;;;;;;;;;;;;;;;;;4993099;28;19918;-77
2021/07/04 16:17:18;;;;;;;;;;;;;;;;;;4992995;28;19922;-77
2021/07/04 16:19:43;;;;;;;;;;;;;;;;;;4990530;28;19917;-77
2021/07/04 16:22:08;;;;;;;;;;;;;;;;;;4996332;28;20400;-77
2021/07/04 16:24:34;;;;;;;;;;;;;;;;;;4996648;28;19999;-79
2021/07/04 16:26:59;;;;;;;;;;;;;;;;;;4996002;28;19921;-77
2021/07/04 16:29:24;;;;;;;;;;;;;;;;;;4994319;28;20008;-77
2021/07/04 16:31:50;;;;;;;;;;;;;;;;;;4996082;28;19939;-77
2021/07/04 16:34:15;;;;;;;;;;;;;;;;;;5013866;28;19922;-77
2021/07/04 16:36:40;;;;;;;;;;;;;;;;;;5009137;28;19922;-77
2021/07/04 16:39:06;;;;;;;;;;;;;;;;;;4992550;28;19924;-77
2021/07/04 16:41:31;;;;;;;;;;;;;;;;;;4996395;28;20285;-77
2021/07/04 16:43:56;;;;;;;;;;;;;;;;;;4995519;28;19968;-77